Saltar para o conteúdo principal

Lisboa, Carnide (CML)

ID 6215302 · 38.7751, -9.1855 mapa

Última leitura · 2026-05-09 18:00 (Europe/Lisbon)

Temperatura
15.3 °C
Humidade
84 %
Pressão
1,006.3 hPa
Precipitação
0.0 mm
Radiação
Velocidade do vento
18.0 km/h
Direcção do vento
SW · Sudoeste

Histórico de 24 horas

Hora (Europe/Lisbon) Temperatura Humidade Pressão Chuva Vento Direcção
2026-05-09 18:00 15.3 °C 84 % 1,006.3 0.0 mm 18.0 km/h SW
2026-05-09 17:00 14.2 °C 89 % 1,006.1 2.3 mm 15.8 km/h SW
2026-05-09 16:00 16.8 °C 79 % 1,005.2 0.6 mm 17.3 km/h SW
2026-05-09 15:00 18.1 °C 77 % 1,004.7 0.0 mm 33.1 km/h SW
2026-05-09 14:00 17.5 °C 77 % 1,004.6 0.1 mm 30.6 km/h SW
2026-05-09 13:00 17.6 °C 74 % 1,004.2 0.1 mm 23.0 km/h SW
2026-05-09 12:00 17.0 °C 78 % 1,003.9 0.0 mm 23.0 km/h S
2026-05-09 11:00 15.7 °C 84 % 1,003.3 0.0 mm 21.2 km/h S
2026-05-09 10:00 14.7 °C 92 % 1,002.8 0.0 mm 18.0 km/h S
2026-05-09 09:00 13.2 °C 96 % 1,002.8 0.1 mm 11.5 km/h S
2026-05-09 08:00 12.1 °C 97 % 1,002.8 0.0 mm 4.3 km/h SE
2026-05-09 07:00 11.6 °C 96 % 1,002.9 0.7 mm 4.3 km/h SW
2026-05-09 06:00 11.5 °C 95 % 1,002.9 5.5 mm 13.7 km/h SW
2026-05-09 05:00 12.4 °C 96 % 1,003.4 0.5 mm 6.5 km/h SW
2026-05-09 04:00 11.8 °C 98 % 1,004.0 0.2 mm 11.9 km/h SE
2026-05-09 03:00 11.6 °C 97 % 1,004.7 19.3 mm 9.0 km/h N
2026-05-09 02:00 12.0 °C 94 % 1,005.4 4.8 mm 4.3 km/h SW
2026-05-09 01:00 14.3 °C 84 % 1,005.1 0.1 mm 18.0 km/h S
2026-05-09 00:00 14.7 °C 82 % 1,005.2 0.0 mm 24.8 km/h S
2026-05-08 23:00 15.0 °C 85 % 1,005.1 0.0 mm 22.3 km/h S
2026-05-08 22:00 14.8 °C 87 % 1,004.9 0.2 mm 18.0 km/h SE
2026-05-08 21:00 15.9 °C 78 % 1,005.5 0.0 mm 18.4 km/h SE
2026-05-08 20:00 15.8 °C 77 % 1,005.7 0.0 mm 17.3 km/h S
2026-05-08 19:00 16.9 °C 71 % 1,006.0 0.0 mm 19.4 km/h S